Narita, Japan
Current Conditions -  °F | °C
As of 7:00 PM on Sunday 25 Jan 2015 (Local Time) from RJAA Reporting Station
Broken Clouds Broken Clouds  
Wind Chill: 41°   Ceiling: Unl
Heat Index: 45°   Visibility: 6mi
Dew Point: 36°   Wind: 6mph
Humidity: 71%   Direction: 70°ENE
Pressure: 30.36"   Gusts: NA
Location:  35.78°N, 140.32°E
Report Text: RJAA 251000Z 07005KT 9999 FEW025 BKN/// 07/02 Q1028 BECMG 05004KT
Loading
Personal Weather Stations






























Interactive Weather Map New forecast layout! Learn more

10-Day Weather Forecast

Advertisements
Track Severe Weather on mobile